Time;durP1;ratioP1;P1;durP2;ratioP2;P2;SDS_P1;SDS_P2;PMS_P1;PMS_P2;Temp;Humidity;BMP_temperature;BMP_pressure;BME280_temperature;BME280_humidity;BME280_pressure;Samples;Min_cycle;Max_cycle;Signal;HPM_P1;HPM_P2
2021/07/31 00:00:23;;;;;;;9.15;4.65;;;;;;;20.98;96.18;99782.13;5081024;28;20043;-74
2021/07/31 00:02:53;;;;;;;5.03;4.18;;;;;;;20.96;95.35;99798.22;5081468;28;20081;-74
2021/07/31 00:05:19;;;;;;;6.45;3.92;;;;;;;21.07;94.53;99782.97;5084180;28;20086;-74
2021/07/31 00:07:45;;;;;;;7.72;4.50;;;;;;;20.93;94.49;99788.91;5082468;28;20024;-74
2021/07/31 00:10:11;;;;;;;5.75;3.90;;;;;;;20.90;93.31;99784.34;5066971;28;20453;-74
2021/07/31 00:12:37;;;;;;;4.95;4.20;;;;;;;20.80;94.46;99788.22;5068278;28;20170;-74
2021/07/31 00:15:03;;;;;;;6.15;4.20;;;;;;;20.76;93.31;99776.63;5083734;28;20054;-74
2021/07/31 00:17:28;;;;;;;3.97;3.58;;;;;;;20.81;93.23;99772.56;5078817;28;20056;-74
2021/07/31 00:19:54;;;;;;;5.60;3.65;;;;;;;20.88;92.51;99770.34;5071612;28;20557;-74
2021/07/31 00:22:19;;;;;;;4.25;3.80;;;;;;;20.93;92.02;99768.97;5085892;28;20104;-74
2021/07/31 00:24:45;;;;;;;5.50;3.47;;;;;;;20.99;91.52;99767.19;5075029;28;20032;-75
2021/07/31 00:27:10;;;;;;;6.00;4.22;;;;;;;20.82;91.96;99761.16;5079100;28;20031;-74
2021/07/31 00:29:36;;;;;;;8.88;3.60;;;;;;;20.68;92.24;99762.44;5075288;28;20029;-74
2021/07/31 00:32:01;;;;;;;7.07;3.97;;;;;;;20.71;91.78;99763.53;5078167;28;20039;-74
2021/07/31 00:34:27;;;;;;;7.05;3.70;;;;;;;20.66;92.21;99772.28;5072791;28;20032;-74
2021/07/31 00:36:52;;;;;;;4.85;3.95;;;;;;;;;;5077170;28;20040;-74
2021/07/31 00:39:18;;;;;;;7.55;4.05;;;;;;;20.62;91.62;99766.19;5065630;28;20055;-74
2021/07/31 00:41:45;;;;;;;5.72;3.80;;;;;;;20.55;91.66;99763.69;5051615;28;20110;-74
2021/07/31 00:44:11;;;;;;;7.57;3.95;;;;;;;20.38;91.78;99762.34;5058458;28;20494;-74
2021/07/31 00:46:36;;;;;;;5.05;3.65;;;;;;;20.48;91.18;99766.66;5079000;28;20074;-74
2021/07/31 00:49:02;;;;;;;4.45;3.03;;;;;;;20.36;91.63;99760.03;5061907;28;20040;-74
2021/07/31 00:51:30;;;;;;;6.75;3.60;;;;;;;20.35;91.49;99765.94;5071181;28;20488;-74
2021/07/31 00:53:55;;;;;;;5.38;3.15;;;;;;;20.26;91.63;99769.38;5061942;28;20033;-74
2021/07/31 00:56:21;;;;;;;6.90;3.15;;;;;;;20.25;91.53;99759.63;5085126;28;20032;-74
2021/07/31 00:58:47;;;;;;;3.28;2.88;;;;;;;20.12;92.18;99763.56;5077516;28;20035;-74
2021/07/31 01:01:15;;;;;;;4.10;3.10;;;;;;;20.26;93.90;99765.88;5068435;28;20082;-74
2021/07/31 01:03:41;;;;;;;7.25;3.20;;;;;;;20.19;96.02;99771.59;5087283;28;20423;-74
2021/07/31 01:06:07;;;;;;;5.43;3.30;;;;;;;20.23;95.54;99772.22;5077453;28;20103;-74
2021/07/31 01:08:33;;;;;;;6.65;3.65;;;;;;;20.08;96.79;99765.66;5055026;28;20035;-74
2021/07/31 01:11:01;;;;;;;6.82;3.35;;;;;;;20.20;96.35;99773.88;5070364;28;20083;-74
2021/07/31 01:13:29;;;;;;;4.72;3.58;;;;;;;19.93;98.60;99770.84;5078760;28;20496;-74
2021/07/31 01:16:02;;;;;;;9.48;3.50;;;;;;;19.96;98.50;99764.47;5070843;28;20492;-74
2021/07/31 01:18:28;;;;;;;5.45;3.63;;;;;;;19.84;99.00;99769.97;5063962;28;20071;-74
2021/07/31 01:20:54;;;;;;;4.90;3.70;;;;;;;19.74;99.18;99769.84;5073994;28;20051;-74
2021/07/31 01:23:20;;;;;;;5.35;3.40;;;;;;;19.75;100.00;99765.16;5066182;28;20069;-74
2021/07/31 01:25:46;;;;;;;6.53;3.75;;;;;;;19.71;100.00;99768.00;5082027;28;20104;-74
2021/07/31 01:28:11;;;;;;;6.32;4.25;;;;;;;19.63;100.00;99763.97;5056053;28;20028;-74
2021/07/31 01:30:38;;;;;;;7.68;4.03;;;;;;;19.74;100.00;99753.44;5059461;28;20066;-74
2021/07/31 01:33:04;;;;;;;6.40;4.28;;;;;;;19.88;100.00;99754.22;5069279;28;20031;-74
2021/07/31 01:35:30;;;;;;;7.85;4.25;;;;;;;19.94;100.00;99763.41;5084565;28;20032;-74
2021/07/31 01:38:01;;;;;;;6.18;4.10;;;;;;;19.79;100.00;99761.13;5057766;28;20036;-75
2021/07/31 01:40:28;;;;;;;7.70;4.38;;;;;;;19.79;100.00;99758.38;5064313;28;20473;-75
2021/07/31 01:42:56;;;;;;;5.40;3.85;;;;;;;19.85;100.00;99753.13;5080094;28;20060;-75
2021/07/31 01:45:26;;;;;;;6.63;4.68;;;;;;;19.53;100.00;99756.09;5076533;28;20055;-75
2021/07/31 01:47:52;;;;;;;7.65;4.90;;;;;;;19.46;100.00;99759.81;5076920;28;20496;-75
2021/07/31 01:50:19;;;;;;;7.97;5.80;;;;;;;19.42;100.00;99758.38;5086963;28;20040;-75
2021/07/31 01:52:48;;;;;;;8.80;5.85;;;;;;;19.38;100.00;99758.50;5079895;28;20492;-75
2021/07/31 01:55:15;;;;;;;8.52;6.30;;;;;;;19.42;100.00;99767.34;5063883;28;20486;-75
2021/07/31 01:57:46;;;;;;;9.48;5.82;;;;;;;19.43;100.00;99771.63;5075419;28;20069;-75
2021/07/31 02:00:31;;;;;;;7.50;6.18;;;;;;;19.30;100.00;99764.59;5086619;28;20053;-75
2021/07/31 02:03:08;;;;;;;10.55;6.70;;;;;;;19.48;100.00;99767.56;5059444;28;20123;-75
2021/07/31 02:05:42;;;;;;;9.23;6.93;;;;;;;19.25;100.00;99767.84;5063900;28;20492;-75
2021/07/31 02:08:07;;;;;;;10.63;6.50;;;;;;;19.43;100.00;99765.38;5082298;28;20020;-75
2021/07/31 02:10:46;;;;;;;9.93;6.45;;;;;;;19.60;100.00;99767.59;5051805;28;20123;-75
2021/07/31 02:13:12;;;;;;;10.38;6.38;;;;;;;19.49;100.00;99758.19;5059791;28;20123;-75
2021/07/31 02:15:45;;;;;;;7.97;5.50;;;;;;;19.56;100.00;99761.47;5044074;28;20489;-75
2021/07/31 02:18:15;;;;;;;8.60;5.65;;;;;;;19.50;100.00;99757.75;5058221;28;20028;-75
2021/07/31 02:20:42;;;;;;;8.25;4.68;;;;;;;19.40;100.00;99755.31;5067491;28;20037;-75
2021/07/31 02:23:26;;;;;;;8.20;4.97;;;;;;;19.47;100.00;99749.66;5073273;28;20043;-75
2021/07/31 02:26:10;;;;;;;7.43;4.43;;;;;;;19.41;100.00;99743.97;5085426;28;20047;-75
2021/07/31 02:28:41;;;;;;;7.10;3.90;;;;;;;19.46;99.33;99737.97;5071203;28;20036;-75
2021/07/31 02:31:11;;;;;;;5.70;3.60;;;;;;;19.41;99.49;99748.66;5079669;28;20040;-75
2021/07/31 02:33:37;;;;;;;6.38;3.75;;;;;;;19.41;97.90;99743.97;5082364;28;20039;-75
2021/07/31 02:36:04;;;;;;;7.70;3.88;;;;;;;19.33;98.50;99741.88;5063252;28;20024;-74
2021/07/31 02:38:53;;;;;;;6.90;3.70;;;;;;;19.28;99.11;99742.41;5064153;28;20062;-74
2021/07/31 02:41:19;;;;;;;7.28;3.97;;;;;;;19.31;98.42;99745.03;5072334;28;20107;-74
2021/07/31 02:43:45;;;;;;;5.95;3.47;;;;;;;19.17;98.45;99736.47;5048091;28;20128;-74
2021/07/31 02:46:11;;;;;;;7.80;3.88;;;;;;;19.25;98.71;99737.81;5060980;28;20607;-74
2021/07/31 02:48:38;;;;;;;7.97;3.63;;;;;;;19.16;98.40;99733.00;5059769;28;20094;-74
2021/07/31 02:51:12;;;;;;;5.80;3.50;;;;;;;19.23;98.26;99740.97;5056379;28;20035;-74
2021/07/31 02:53:58;;;;;;;8.25;4.05;;;;;;;19.11;98.33;99740.94;5034487;28;20040;-74
2021/07/31 02:56:24;;;;;;;4.18;3.30;;;;;;;19.07;98.13;99734.81;5087730;28;20039;-74
2021/07/31 02:58:50;;;;;;;7.05;3.40;;;;;;;19.04;98.53;99741.94;5081369;28;20412;-74
2021/07/31 03:01:16;;;;;;;11.93;3.90;;;;;;;18.98;99.11;99740.94;5066360;28;20028;-75
2021/07/31 03:03:42;;;;;;;4.97;3.63;;;;;;;19.05;98.91;99738.00;5074948;28;20027;-75
2021/07/31 03:06:09;;;;;;;6.28;3.50;;;;;;;19.06;98.77;99728.63;5077889;28;20585;-75
2021/07/31 03:08:36;;;;;;;7.85;3.17;;;;;;;18.96;99.55;99743.34;5063436;28;20089;-75
2021/07/31 03:11:05;;;;;;;12.25;3.50;;;;;;;18.97;99.51;99728.47;5076062;28;20028;-75
2021/07/31 03:13:33;;;;;;;4.72;3.65;;;;;;;19.01;99.83;99733.84;5083301;28;20020;-75
2021/07/31 03:15:59;;;;;;;9.15;3.78;;;;;;;18.92;100.00;99729.78;5046080;28;20036;-75
2021/07/31 03:18:26;;;;;;;4.78;3.40;;;;;;;18.99;99.93;99719.88;5064290;28;20043;-75
2021/07/31 03:20:53;;;;;;;4.82;4.15;;;;;;;19.06;99.14;99725.13;5083155;28;20035;-75
2021/07/31 03:23:28;;;;;;;5.40;3.15;;;;;;;18.87;99.60;99724.13;5067548;28;20028;-76
2021/07/31 03:25:59;;;;;;;8.88;3.78;;;;;;;18.71;99.17;99713.25;5060093;28;20547;-75
2021/07/31 03:28:25;;;;;;;3.80;3.00;;;;;;;18.70;99.19;99707.03;5083561;28;20119;-75
2021/07/31 03:30:53;;;;;;;6.07;2.92;;;;;;;18.84;98.78;99719.50;5072100;28;20043;-75
2021/07/31 03:33:19;;;;;;;5.93;2.90;;;;;;;18.74;99.28;99709.66;5063611;28;20493;-75
2021/07/31 03:35:45;;;;;;;4.25;2.70;;;;;;;18.51;99.17;99704.47;5086415;28;20070;-75
2021/07/31 03:38:24;;;;;;;3.47;2.60;;;;;;;18.31;99.54;99707.28;5070339;28;20024;-75
2021/07/31 03:40:51;;;;;;;4.07;2.65;;;;;;;18.27;100.00;99708.59;5083417;28;20032;-75
2021/07/31 03:43:20;;;;;;;4.28;2.78;;;;;;;18.22;100.00;99707.16;5055622;28;20123;-75
2021/07/31 03:45:45;;;;;;;7.13;2.55;;;;;;;18.35;98.91;99709.94;5054613;28;20178;-75
2021/07/31 03:48:11;;;;;;;3.47;2.60;;;;;;;18.20;98.06;99697.88;5081478;28;20031;-75
2021/07/31 03:50:40;;;;;;;7.55;2.40;;;;;;;18.33;98.23;99706.88;5069764;28;20720;-75
2021/07/31 03:53:06;;;;;;;5.13;2.63;;;;;;;18.49;97.32;99698.66;5075708;28;20044;-75
2021/07/31 03:55:36;;;;;;;5.75;2.33;;;;;;;18.46;97.77;99696.81;5039709;28;20083;-75
2021/07/31 03:58:04;;;;;;;5.20;2.67;;;;;;;18.63;96.66;99688.16;5073730;28;20027;-74
2021/07/31 04:00:31;;;;;;;6.60;2.65;;;;;;;18.66;96.15;99687.25;5050633;28;20028;-74
2021/07/31 04:03:00;;;;;;;3.75;2.22;;;;;;;18.63;96.74;99693.59;5073843;28;20401;-74
2021/07/31 04:05:26;;;;;;;9.55;2.30;;;;;;;18.70;95.43;99698.06;5066199;28;20400;-74
2021/07/31 04:08:10;;;;;;;3.67;2.20;;;;;;;18.65;95.80;99693.16;5070547;28;20125;-74
2021/07/31 04:10:54;;;;;;;4.65;2.22;;;;;;;18.41;95.72;99686.38;5071421;28;20086;-73
2021/07/31 04:13:58;;;;;;;4.82;2.42;;;;;;;18.45;96.68;99698.78;5077217;28;20040;-73
2021/07/31 04:16:40;;;;;;;2.95;2.20;;;;;;;18.52;96.38;99698.59;5072512;28;20496;-74
2021/07/31 04:19:06;;;;;;;3.53;2.00;;;;;;;18.61;95.10;99687.03;5073383;28;20070;-74
2021/07/31 04:21:33;;;;;;;2.95;1.95;;;;;;;18.40;94.83;99693.81;5061522;28;20126;-74
2021/07/31 04:23:59;;;;;;;5.22;2.08;;;;;;;18.52;95.69;99703.28;5070863;28;20024;-74
2021/07/31 04:26:24;;;;;;;2.65;2.35;;;;;;;18.40;95.26;99693.81;5076459;28;20031;-74
2021/07/31 04:28:50;;;;;;;7.20;2.17;;;;;;;18.46;95.42;99694.88;5078162;28;20119;-74
2021/07/31 04:31:16;;;;;;;5.50;2.30;;;;;;;18.32;95.65;99695.22;5088522;28;20031;-73
2021/07/31 04:33:43;;;;;;;3.40;2.38;;;;;;;18.50;95.70;99697.50;5059981;28;20048;-74
2021/07/31 04:36:09;;;;;;;6.03;2.30;;;;;;;18.59;95.07;99692.16;5058431;28;20063;-74
2021/07/31 04:38:35;;;;;;;2.90;2.00;;;;;;;18.39;95.22;99694.25;5071442;28;20064;-74
2021/07/31 04:41:02;;;;;;;5.75;1.73;;;;;;;18.33;94.59;99695.97;5062705;28;20442;-73
2021/07/31 04:43:28;;;;;;;3.40;2.17;;;;;;;18.33;94.88;99682.34;5080385;28;20098;-74
2021/07/31 04:45:53;;;;;;;4.68;2.20;;;;;;;18.50;95.12;99687.34;5076637;28;20528;-75
2021/07/31 04:48:19;;;;;;;9.60;2.00;;;;;;;18.21;94.06;99694.72;5071989;28;20587;-75
2021/07/31 04:50:44;;;;;;;5.15;1.80;;;;;;;18.29;94.58;99695.31;5076371;28;20079;-75
2021/07/31 04:53:10;;;;;;;4.07;2.00;;;;;;;18.51;93.32;99683.41;5076443;28;20059;-74
2021/07/31 04:55:35;;;;;;;6.78;1.75;;;;;;;18.38;93.27;99687.25;5081766;28;20032;-75
2021/07/31 04:58:01;;;;;;;5.82;2.00;;;;;;;18.36;93.34;99676.03;5084518;28;20028;-75
2021/07/31 05:00:26;;;;;;;3.85;1.90;;;;;;;18.59;92.43;99681.25;5074910;28;20111;-75
2021/07/31 05:02:52;;;;;;;4.13;1.92;;;;;;;18.62;92.13;99692.06;5060124;28;20043;-75
2021/07/31 05:05:17;;;;;;;3.78;1.90;;;;;;;18.70;91.77;99681.69;5083085;28;20107;-75
2021/07/31 05:07:43;;;;;;;3.42;1.73;;;;;;;18.72;91.87;99692.94;5078160;28;20031;-75
2021/07/31 05:10:09;;;;;;;4.57;2.38;;;;;;;18.46;91.50;99688.63;5084919;28;20024;-75
2021/07/31 05:12:34;;;;;;;3.95;1.73;;;;;;;18.70;91.03;99678.97;5061329;28;20508;-75
2021/07/31 05:15:00;;;;;;;2.40;1.73;;;;;;;18.63;90.26;99679.97;5066309;28;20035;-75
2021/07/31 05:17:25;;;;;;;7.78;1.90;;;;;;;18.67;91.13;99685.31;5062314;28;20115;-75
2021/07/31 05:19:51;;;;;;;10.05;2.42;;;;;;;18.51;90.94;99674.47;5062429;28;20035;-75
2021/07/31 05:22:18;;;;;;;2.83;1.80;;;;;;;18.59;90.56;99678.53;5062624;28;20435;-74
2021/07/31 05:24:43;;;;;;;7.22;1.70;;;;;;;18.39;90.75;99672.44;5062465;28;20511;-75
2021/07/31 05:27:09;;;;;;;5.15;2.00;;;;;;;18.72;90.79;99671.91;5080524;28;20032;-75
2021/07/31 05:29:34;;;;;;;5.50;2.20;;;;;;;18.65;90.41;99677.56;5067505;28;20445;-75
2021/07/31 05:32:00;;;;;;;3.88;1.85;;;;;;;18.46;90.43;99675.00;5085322;28;20028;-75
2021/07/31 05:34:26;;;;;;;3.25;1.92;;;;;;;18.48;91.03;99669.88;5063989;28;20036;-75
2021/07/31 05:36:52;;;;;;;7.50;2.03;;;;;;;18.48;90.42;99669.88;5084171;28;20040;-75
2021/07/31 05:39:18;;;;;;;4.60;1.98;;;;;;;18.48;89.87;99686.25;5085761;28;20062;-75
2021/07/31 05:41:43;;;;;;;6.47;2.20;;;;;;;18.45;90.19;99674.22;5071907;28;20033;-74
2021/07/31 05:44:09;;;;;;;3.38;1.92;;;;;;;18.55;89.97;99664.22;5070983;28;20058;-75
2021/07/31 05:46:34;;;;;;;5.70;2.10;;;;;;;18.65;89.67;99683.03;5082170;28;20393;-75
2021/07/31 05:49:00;;;;;;;7.65;1.88;;;;;;;18.52;89.30;99676.00;5077233;28;20028;-74
2021/07/31 05:51:25;;;;;;;4.13;1.80;;;;;;;18.50;88.20;99676.44;5076947;28;20044;-75
2021/07/31 05:53:50;;;;;;;2.75;1.63;;;;;;;18.55;88.12;99672.41;5053020;28;20392;-75
2021/07/31 05:56:16;;;;;;;4.57;1.88;;;;;;;18.57;88.68;99664.56;5073938;28;20075;-74
2021/07/31 05:58:42;;;;;;;8.70;1.98;;;;;;;18.45;88.15;99670.72;5066265;28;20027;-74
2021/07/31 06:01:08;;;;;;;4.00;1.70;;;;;;;18.53;87.68;99667.38;5088141;28;20035;-74
2021/07/31 06:03:34;;;;;;;5.80;2.10;;;;;;;18.62;88.22;99672.22;5082222;28;20036;-75
2021/07/31 06:06:00;;;;;;;6.88;1.80;;;;;;;18.65;88.14;99669.38;5068121;28;20226;-75
2021/07/31 06:08:26;;;;;;;4.15;1.70;;;;;;;18.54;88.24;99679.06;5087994;28;20582;-75
2021/07/31 06:10:59;;;;;;;4.38;2.00;;;;;;;18.57;87.11;99672.72;5058776;28;20028;-75
2021/07/31 06:13:24;;;;;;;6.93;1.90;;;;;;;18.61;87.08;99668.72;5080568;28;20362;-75
2021/07/31 06:15:50;;;;;;;6.15;1.80;;;;;;;18.70;86.42;99676.25;5078460;28;20039;-75
2021/07/31 06:18:15;;;;;;;6.82;1.75;;;;;;;18.78;86.05;99675.63;5066117;28;20111;-75
2021/07/31 06:20:40;;;;;;;4.93;1.90;;;;;;;18.70;86.04;99670.78;5065186;28;20453;-75
2021/07/31 06:23:06;;;;;;;4.65;1.55;;;;;;;18.56;87.16;99671.22;5051956;28;20433;-75
2021/07/31 06:25:31;;;;;;;8.02;1.90;;;;;;;18.70;86.23;99674.28;5074308;28;20108;-75
2021/07/31 06:27:57;;;;;;;4.38;1.70;;;;;;;18.81;86.77;99674.00;5078320;28;20024;-75
2021/07/31 06:30:22;;;;;;;4.22;1.52;;;;;;;18.97;85.56;99679.34;5063174;28;20034;-75
2021/07/31 06:32:48;;;;;;;2.90;1.60;;;;;;;18.81;86.55;99665.81;5061840;28;20408;-75
2021/07/31 06:35:15;;;;;;;2.78;1.60;;;;;;;18.83;85.85;99663.41;5084791;28;20040;-75
2021/07/31 06:37:41;;;;;;;3.92;1.55;;;;;;;18.94;85.38;99674.78;5070388;28;20028;-75
2021/07/31 06:40:08;;;;;;;4.05;1.65;;;;;;;19.02;85.40;99667.91;5079433;28;20377;-75
2021/07/31 06:42:33;;;;;;;4.57;1.60;;;;;;;18.79;84.17;99668.22;5066170;28;20400;-75
2021/07/31 06:44:59;;;;;;;6.13;1.83;;;;;;;18.84;84.94;99675.84;5081060;28;20039;-75
2021/07/31 06:47:24;;;;;;;6.32;1.70;;;;;;;18.96;85.02;99666.91;5080747;28;20081;-75
2021/07/31 06:49:50;;;;;;;4.22;1.85;;;;;;;18.67;84.75;99668.94;5078420;28;20056;-75
2021/07/31 06:52:16;;;;;;;7.20;1.90;;;;;;;18.83;85.30;99660.69;5071567;28;20405;-75
2021/07/31 06:54:42;;;;;;;6.72;1.85;;;;;;;18.87;84.82;99669.53;5061993;28;20123;-75
2021/07/31 06:57:09;;;;;;;7.03;1.92;;;;;;;18.80;84.21;99665.03;5080986;28;20128;-74
2021/07/31 06:59:35;;;;;;;6.18;1.73;;;;;;;18.95;84.70;99664.63;5077532;28;20073;-74
2021/07/31 07:02:00;;;;;;;4.25;2.03;;;;;;;19.01;84.61;99663.63;5071584;28;20099;-74
2021/07/31 07:04:26;;;;;;;5.93;2.00;;;;;;;18.91;84.60;99659.28;5036742;28;20035;-75
2021/07/31 07:06:51;;;;;;;3.92;1.70;;;;;;;19.01;85.02;99668.34;5071945;28;20032;-75
2021/07/31 07:09:17;;;;;;;4.25;1.70;;;;;;;19.14;84.11;99653.50;5073467;28;20032;-74
2021/07/31 07:11:43;;;;;;;5.18;1.70;;;;;;;19.18;83.81;99650.66;5072071;28;20063;-74
2021/07/31 07:14:09;;;;;;;7.63;2.20;;;;;;;19.31;82.86;99648.69;5067223;28;20021;-74
2021/07/31 07:16:34;;;;;;;5.85;2.25;;;;;;;19.15;82.75;99660.47;5061795;28;20512;-75
2021/07/31 07:19:00;;;;;;;4.45;1.52;;;;;;;19.27;82.72;99648.03;5057529;28;20625;-74
2021/07/31 07:21:25;;;;;;;13.85;2.00;;;;;;;19.39;82.89;99648.06;5077270;28;20052;-74
2021/07/31 07:23:51;;;;;;;4.97;1.80;;;;;;;19.39;82.25;99648.06;5077848;28;20033;-74
2021/07/31 07:26:16;;;;;;;7.40;1.80;;;;;;;19.48;81.89;99650.88;5082734;28;20063;-74
2021/07/31 07:28:42;;;;;;;6.55;1.95;;;;;;;19.84;81.59;99646.97;5054615;28;20035;-74
2021/07/31 07:31:13;;;;;;;4.53;1.92;;;;;;;19.94;79.99;99648.59;5070861;28;20048;-75
2021/07/31 07:33:39;;;;;;;;;;;;;;;20.06;78.51;99643.06;5073372;28;20389;-74
2021/07/31 07:36:16;;;;;;;7.05;2.28;;;;;;;20.47;77.94;99639.28;5077140;28;19912;-74
2021/07/31 07:38:42;;;;;;;4.72;2.10;;;;;;;20.40;77.10;99634.09;5079055;28;20405;-74
2021/07/31 07:41:09;;;;;;;6.38;2.25;;;;;;;20.37;76.46;99640.44;5056359;28;20461;-74
2021/07/31 07:43:36;;;;;;;4.72;1.90;;;;;;;20.18;77.29;99644.22;5079066;28;20040;-74
2021/07/31 07:46:02;;;;;;;5.75;2.00;;;;;;;19.94;77.26;99634.94;5071272;28;20039;-74
2021/07/31 07:48:27;;;;;;;4.05;1.80;;;;;;;19.97;78.63;99648.47;5074510;28;20119;-75
2021/07/31 07:50:53;;;;;;;4.53;1.98;;;;;;;20.03;77.86;99643.19;5077747;28;20159;-74
2021/07/31 07:53:18;;;;;;;3.85;1.92;;;;;;;19.69;78.59;99641.97;5088615;28;20024;-74
2021/07/31 07:55:44;;;;;;;5.85;2.03;;;;;;;19.78;79.05;99649.53;5080751;28;20039;-75
2021/07/31 07:58:10;;;;;;;4.72;2.00;;;;;;;19.79;79.32;99640.09;5086808;28;20032;-75
2021/07/31 08:00:36;;;;;;;5.07;1.92;;;;;;;19.59;79.83;99639.59;5063187;28;20133;-75
2021/07/31 08:03:02;;;;;;;4.03;1.98;;;;;;;19.45;80.23;99632.63;5055842;28;20489;-74
2021/07/31 08:05:27;;;;;;;4.88;1.73;;;;;;;19.27;80.58;99643.34;5054034;28;20043;-74
2021/07/31 08:07:53;;;;;;;3.40;1.60;;;;;;;19.32;81.06;99647.47;5075990;28;20028;-74
2021/07/31 08:10:18;;;;;;;5.70;2.08;;;;;;;19.39;81.05;99656.25;5057589;28;20058;-74
2021/07/31 08:12:44;;;;;;;3.42;1.80;;;;;;;19.51;80.85;99647.25;5072865;28;20638;-74
2021/07/31 08:15:10;;;;;;;6.40;2.10;;;;;;;19.53;80.61;99660.50;5053313;28;20035;-73
2021/07/31 08:17:36;;;;;;;3.78;1.92;;;;;;;19.59;81.14;99653.25;5077103;28;20501;-73
2021/07/31 08:20:05;;;;;;;3.28;1.90;;;;;;;19.44;81.60;99660.38;5076774;28;20036;-74
2021/07/31 08:22:30;;;;;;;5.20;2.30;;;;;;;19.28;82.52;99655.78;5080195;28;20063;-73
2021/07/31 08:24:55;;;;;;;4.32;2.10;;;;;;;19.18;84.12;99653.41;5085004;28;20032;-74
2021/07/31 08:27:22;;;;;;;10.02;2.38;;;;;;;19.40;83.86;99654.25;5072624;28;20109;-75
2021/07/31 08:29:48;;;;;;;5.28;1.95;;;;;;;19.46;83.12;99650.56;5072686;28;20037;-74
2021/07/31 08:32:13;;;;;;;6.82;2.55;;;;;;;19.39;83.80;99655.47;5054043;28;20032;-74
2021/07/31 08:34:39;;;;;;;4.25;2.30;;;;;;;19.38;83.34;99651.97;5076296;28;20051;-74
2021/07/31 08:37:04;;;;;;;10.32;2.47;;;;;;;19.43;83.74;99651.44;5071857;28;20037;-74
2021/07/31 08:39:30;;;;;;;4.55;2.10;;;;;;;19.58;83.51;99652.50;5055244;28;20082;-74
2021/07/31 08:41:56;;;;;;;6.30;2.20;;;;;;;19.48;83.65;99655.56;5075007;28;20047;-74
2021/07/31 08:44:21;;;;;;;5.97;2.40;;;;;;;19.69;83.51;99652.91;5079764;28;20038;-74
2021/07/31 08:46:49;;;;;;;4.72;2.40;;;;;;;19.79;82.57;99651.81;5044960;28;20032;-74
2021/07/31 08:49:18;;;;;;;7.50;2.40;;;;;;;19.95;82.61;99648.16;5074745;28;20438;-75
2021/07/31 08:51:45;;;;;;;6.95;2.40;;;;;;;20.22;82.30;99644.91;5077418;28;20040;-74
2021/07/31 08:54:11;;;;;;;6.15;2.22;;;;;;;20.55;80.80;99652.28;5079137;28;20063;-75
2021/07/31 08:56:41;;;;;;;2.85;2.08;;;;;;;20.57;79.46;99649.09;5071334;28;20461;-75
2021/07/31 09:01:43;;;;;;;4.30;2.05;;;;;;;20.48;80.44;99646.28;4998824;28;20061;-75
2021/07/31 09:04:16;;;;;;;5.85;2.00;;;;;;;20.37;81.39;99651.38;4990714;28;20053;-75
2021/07/31 09:06:42;;;;;;;4.15;2.20;;;;;;;20.02;81.77;99639.69;4985506;28;20037;-75
2021/07/31 09:09:08;;;;;;;2.65;2.10;;;;;;;20.11;82.73;99642.50;4999555;28;20031;-75
2021/07/31 09:11:34;;;;;;;5.88;2.45;;;;;;;19.95;83.22;99648.16;4987678;28;20033;-75
2021/07/31 09:14:10;;;;;;;5.45;2.17;;;;;;;20.03;83.50;99643.97;4986992;28;20113;-75
2021/07/31 09:16:36;;;;;;;5.68;2.38;;;;;;;19.93;83.17;99649.78;4988221;28;20040;-75
2021/07/31 09:19:04;;;;;;;4.15;2.08;;;;;;;19.98;81.79;99662.88;4979589;28;20031;-75
2021/07/31 09:21:30;;;;;;;7.57;2.63;;;;;;;19.92;81.20;99642.81;4988269;28;20145;-76
2021/07/31 09:23:55;;;;;;;4.38;2.00;;;;;;;20.07;80.41;99655.56;4989895;28;20503;-75
2021/07/31 09:26:25;;;;;;;6.07;2.15;;;;;;;20.33;80.08;99650.75;4987625;28;20112;-76
2021/07/31 09:29:00;;;;;;;3.80;2.10;;;;;;;20.75;77.32;99651.91;4988272;28;20034;-75
2021/07/31 09:31:26;;;;;;;4.35;1.88;;;;;;;20.98;76.32;99647.94;4993582;28;20038;-76
2021/07/31 09:33:51;;;;;;;3.03;1.90;;;;;;;20.96;76.41;99640.19;4988752;28;20026;-75
2021/07/31 09:36:17;;;;;;;6.20;1.90;;;;;;;21.12;75.90;99636.44;4985242;28;20625;-75
2021/07/31 09:38:48;;;;;;;4.93;1.90;;;;;;;21.26;75.83;99639.41;4986217;28;20030;-76
2021/07/31 09:41:34;;;;;;;8.13;2.47;;;;;;;21.41;75.48;99645.06;4989108;28;20026;-75
2021/07/31 09:44:04;;;;;;;2.75;1.80;;;;;;;21.44;73.58;99631.25;4977717;28;20065;-75
2021/07/31 09:46:32;;;;;;;6.63;1.97;;;;;;;21.08;73.61;99644.06;4985197;28;20027;-76
2021/07/31 09:48:58;;;;;;;2.88;2.05;;;;;;;21.06;73.98;99630.81;4989082;28;20062;-76
2021/07/31 09:51:39;;;;;;;3.92;1.90;;;;;;;20.98;74.77;99640.47;4987377;28;20030;-75
2021/07/31 09:54:07;;;;;;;7.00;1.73;;;;;;;21.11;74.49;99635.72;4982443;28;20085;-76
2021/07/31 09:56:41;;;;;;;5.00;1.90;;;;;;;21.21;74.27;99629.06;4981662;28;20447;-76
2021/07/31 09:59:08;;;;;;;5.72;1.85;;;;;;;21.49;74.21;99616.16;4974814;28;20399;-75
2021/07/31 10:01:36;;;;;;;5.28;1.95;;;;;;;21.55;72.75;99630.78;5003926;28;20025;-75
2021/07/31 10:04:03;;;;;;;4.85;1.92;;;;;;;21.84;71.75;99620.19;4986083;28;20030;-75
2021/07/31 10:06:30;;;;;;;5.35;2.00;;;;;;;21.90;72.09;99634.06;4992526;28;20037;-76
2021/07/31 10:08:55;;;;;;;8.00;2.05;;;;;;;21.91;71.15;99619.16;5005894;28;20042;-76
2021/07/31 10:11:22;;;;;;;6.05;1.88;;;;;;;21.94;70.04;99632.69;5002900;28;20052;-75
2021/07/31 10:13:48;;;;;;;3.70;1.73;;;;;;;21.86;69.71;99614.25;4995753;28;20080;-76
2021/07/31 10:16:15;;;;;;;5.15;1.73;;;;;;;22.12;70.03;99605.28;4989960;28;20029;-76
2021/07/31 10:18:54;;;;;;;3.38;1.38;;;;;;;21.62;70.72;99616.81;5005332;28;20516;-75
2021/07/31 10:21:20;;;;;;;2.58;1.80;;;;;;;21.29;71.63;99611.09;4990850;28;20042;-76
2021/07/31 10:24:02;;;;;;;8.07;1.88;;;;;;;21.12;72.59;99611.78;4972029;28;20029;-74
2021/07/31 10:26:29;;;;;;;5.15;1.80;;;;;;;21.25;72.92;99615.94;5016483;28;20030;-75
2021/07/31 10:29:15;;;;;;;5.55;1.85;;;;;;;21.25;72.76;99615.94;5007364;28;20034;-75
2021/07/31 10:31:40;;;;;;;2.22;1.75;;;;;;;20.97;73.26;99633.47;5003627;28;20117;-75
2021/07/31 10:34:06;;;;;;;5.47;1.55;;;;;;;21.00;73.38;99621.63;4994529;28;20541;-75
2021/07/31 10:36:34;;;;;;;2.67;1.92;;;;;;;20.81;73.69;99632.97;4988592;28;20034;-75
2021/07/31 10:39:21;;;;;;;3.97;1.77;;;;;;;20.90;72.67;99617.34;4995293;28;20034;-75
2021/07/31 10:41:57;;;;;;;6.45;1.63;;;;;;;21.16;71.97;99618.66;4991966;28;20041;-75
2021/07/31 10:44:24;;;;;;;2.88;1.40;;;;;;;21.35;72.21;99614.75;5004135;28;20109;-75
2021/07/31 10:46:51;;;;;;;3.75;1.60;;;;;;;21.46;70.78;99609.63;4992398;28;20041;-75
2021/07/31 10:49:37;;;;;;;4.72;1.55;;;;;;;21.60;69.97;99588.31;5007262;28;20033;-76
2021/07/31 10:52:02;;;;;;;3.55;1.55;;;;;;;21.97;68.71;99592.63;5005053;28;20743;-75
2021/07/31 10:54:59;;;;;;;3.60;1.20;;;;;;;22.19;68.42;99604.97;5003109;28;20056;-76
2021/07/31 10:57:52;;;;;;;4.45;1.58;;;;;;;22.40;66.32;99575.78;5007740;28;20402;-75
2021/07/31 11:00:34;;;;;;;5.63;1.30;;;;;;;22.17;66.62;99598.41;5010344;28;20521;-77
2021/07/31 11:03:23;;;;;;;5.95;1.73;;;;;;;21.92;67.98;99596.75;4990787;28;20037;-76
2021/07/31 11:05:54;;;;;;;1.80;1.20;;;;;;;21.65;67.85;99590.44;4996704;28;20053;-75
2021/07/31 11:08:23;;;;;;;2.97;1.13;;;;;;;21.72;68.03;99588.16;4985035;28;20026;-76
2021/07/31 11:10:54;;;;;;;3.22;1.13;;;;;;;21.70;69.29;99611.78;5020958;28;20308;-75
2021/07/31 11:13:20;;;;;;;2.00;1.00;;;;;;;21.92;68.51;99613.19;4975385;28;20486;-75
2021/07/31 11:16:04;;;;;;;4.22;1.40;;;;;;;21.72;69.50;99593.66;4977134;28;20096;-76
2021/07/31 11:18:36;;;;;;;1.90;1.00;;;;;;;21.79;68.85;99603.56;4995085;28;20076;-75
2021/07/31 11:21:21;;;;;;;1.02;1.00;;;;;;;21.61;69.83;99598.84;5004398;28;20068;-75
2021/07/31 11:23:49;;;;;;;2.00;1.00;;;;;;;21.33;70.33;99600.00;5007541;28;20030;-75
2021/07/31 11:26:44;;;;;;;3.33;1.05;;;;;;;21.27;71.31;99594.34;5007616;28;20502;-75
2021/07/31 11:29:36;;;;;;;1.73;0.90;;;;;;;21.04;72.48;99600.38;5011460;28;20037;-75
2021/07/31 11:32:02;;;;;;;7.57;1.10;;;;;;;21.25;72.71;99601.50;5008676;28;20045;-75
2021/07/31 11:34:39;;;;;;;3.20;1.13;;;;;;;21.70;72.60;99598.09;5009088;28;20042;-75
2021/07/31 11:37:08;;;;;;;13.77;1.40;;;;;;;21.73;71.75;99595.19;5011611;28;20390;-75
2021/07/31 11:39:35;;;;;;;3.63;1.15;;;;;;;21.67;72.54;99590.75;5009938;28;20129;-75
2021/07/31 11:42:01;;;;;;;3.17;1.10;;;;;;;21.52;71.85;99574.91;4975911;28;20068;-74